createdAt,value
2023-03-25T00:02:06.388Z,3.92
2023-03-25T00:07:00.196Z,3.55
2023-03-25T00:11:54.087Z,5.38
2023-03-25T00:16:48.599Z,4.65
2023-03-25T00:21:45.384Z,4.80
2023-03-25T00:26:43.308Z,6.50
2023-03-25T00:31:36.055Z,7.53
2023-03-25T00:36:29.350Z,4.75
2023-03-25T00:41:27.725Z,4.75
2023-03-25T00:46:21.224Z,3.58
2023-03-25T00:51:15.527Z,4.65
2023-03-25T00:56:09.429Z,4.15
2023-03-25T01:01:01.923Z,4.22
2023-03-25T01:05:57.383Z,3.85
2023-03-25T01:10:51.058Z,4.10
2023-03-25T01:15:43.758Z,3.58
2023-03-25T01:20:37.446Z,2.83
2023-03-25T01:25:29.903Z,2.97
2023-03-25T01:30:22.378Z,5.00
2023-03-25T01:35:15.321Z,2.53
2023-03-25T01:40:11.220Z,3.28
2023-03-25T01:45:19.841Z,3.72
2023-03-25T01:50:15.635Z,4.68
2023-03-25T01:55:10.108Z,3.47
2023-03-25T02:00:03.201Z,4.65
2023-03-25T02:05:12.376Z,4.28
2023-03-25T02:10:08.950Z,4.53
2023-03-25T02:15:04.678Z,4.25
2023-03-25T02:20:37.459Z,5.32
2023-03-25T02:26:04.229Z,3.20
2023-03-25T02:30:59.745Z,5.60
2023-03-25T02:36:13.146Z,3.72
2023-03-25T02:41:24.496Z,4.43
2023-03-25T02:46:22.181Z,3.88
2023-03-25T02:51:21.005Z,5.10
2023-03-25T02:56:17.839Z,3.08
2023-03-25T03:01:14.941Z,3.97
2023-03-25T03:06:09.000Z,2.05
2023-03-25T03:11:20.506Z,3.22
2023-03-25T03:16:45.382Z,3.95
2023-03-25T03:21:42.080Z,5.25
2023-03-25T03:27:09.799Z,4.68
2023-03-25T03:32:06.799Z,3.15
2023-03-25T03:37:03.296Z,3.33
2023-03-25T03:42:04.311Z,2.90
2023-03-25T03:47:14.789Z,5.10
2023-03-25T03:52:22.034Z,2.30
2023-03-25T03:57:25.976Z,4.65
2023-03-25T04:02:43.802Z,3.22
2023-03-25T04:07:44.462Z,4.50
2023-03-25T04:12:41.844Z,3.00
2023-03-25T04:17:35.050Z,2.70
2023-03-25T04:22:28.032Z,3.08
2023-03-25T04:27:23.096Z,2.83
2023-03-25T04:32:17.121Z,3.03
2023-03-25T04:37:11.956Z,2.55
2023-03-25T04:42:05.941Z,4.07
2023-03-25T04:46:59.720Z,2.47
2023-03-25T04:51:53.365Z,1.92
2023-03-25T04:56:47.978Z,2.40
2023-03-25T05:01:43.348Z,2.05
2023-03-25T05:06:40.369Z,2.60
2023-03-25T05:11:36.721Z,4.35
2023-03-25T05:16:30.393Z,3.45
2023-03-25T05:21:23.592Z,2.22
2023-03-25T05:26:16.866Z,3.85
2023-03-25T05:31:09.475Z,4.32
2023-03-25T05:36:03.357Z,2.35
2023-03-25T05:40:57.017Z,3.00
2023-03-25T05:45:50.957Z,3.65
2023-03-25T05:50:43.313Z,2.40
2023-03-25T05:55:38.912Z,2.38
2023-03-25T06:00:33.329Z,2.97
2023-03-25T06:05:30.419Z,1.98
2023-03-25T06:10:24.261Z,2.22
2023-03-25T06:15:19.030Z,4.68
2023-03-25T06:20:13.045Z,4.68
2023-03-25T06:25:08.497Z,9.27
2023-03-25T06:30:04.420Z,5.85
2023-03-25T06:34:56.537Z,7.07
2023-03-25T06:39:50.825Z,6.85
2023-03-25T06:44:47.058Z,4.28
2023-03-25T06:49:58.568Z,4.80
2023-03-25T06:54:51.669Z,17.02
2023-03-25T06:59:45.105Z,20.58
2023-03-25T07:04:37.519Z,12.68
2023-03-25T07:09:30.472Z,10.60
2023-03-25T07:14:23.200Z,12.95
2023-03-25T07:19:15.455Z,9.05
2023-03-25T07:24:08.478Z,5.03
2023-03-25T07:29:01.637Z,10.45
2023-03-25T07:33:56.070Z,4.65
2023-03-25T07:38:49.306Z,7.20
2023-03-25T07:43:43.703Z,9.88
2023-03-25T07:48:47.394Z,10.70
2023-03-25T07:54:05.120Z,8.45
2023-03-25T07:58:59.115Z,13.07
2023-03-25T08:03:52.237Z,9.77
2023-03-25T08:08:46.799Z,7.15
2023-03-25T08:13:39.914Z,7.10
2023-03-25T08:18:33.657Z,5.85
2023-03-25T08:23:27.345Z,3.15
2023-03-25T08:28:23.802Z,5.50
2023-03-25T08:33:18.822Z,4.38
2023-03-25T08:38:12.273Z,3.38
2023-03-25T08:43:07.174Z,3.60
2023-03-25T08:48:01.820Z,2.78
2023-03-25T08:52:58.312Z,2.50
2023-03-25T08:57:51.287Z,4.22
2023-03-25T09:02:45.399Z,1.70
2023-03-25T09:07:39.288Z,2.47
2023-03-25T09:12:32.807Z,3.42
2023-03-25T09:17:26.049Z,2.75
2023-03-25T09:22:18.769Z,1.50
2023-03-25T09:27:11.909Z,5.00
2023-03-25T09:32:05.095Z,2.58
2023-03-25T09:36:58.325Z,1.90
2023-03-25T09:42:03.810Z,1.92
2023-03-25T09:46:59.893Z,2.40
2023-03-25T09:51:55.203Z,1.88
2023-03-25T09:56:48.902Z,2.85
2023-03-25T10:02:00.154Z,3.60
2023-03-25T10:07:02.766Z,3.75
2023-03-25T10:12:23.489Z,5.45
2023-03-25T10:17:40.745Z,6.88
2023-03-25T10:22:39.597Z,1.58
2023-03-25T10:27:42.906Z,2.00
2023-03-25T10:32:45.437Z,2.20
2023-03-25T10:38:04.815Z,2.35
2023-03-25T10:43:22.051Z,1.15
2023-03-25T10:48:29.325Z,4.13
2023-03-25T10:53:28.065Z,2.53
2023-03-25T10:58:21.630Z,2.13
2023-03-25T11:03:32.161Z,2.15
2023-03-25T11:08:26.210Z,1.23
2023-03-25T11:13:22.995Z,5.07
2023-03-25T11:18:39.775Z,7.20
2023-03-25T11:23:43.249Z,12.32
2023-03-25T11:28:42.927Z,9.52
2023-03-25T11:33:39.304Z,5.60
2023-03-25T11:38:35.869Z,9.32
2023-03-25T11:43:49.266Z,3.47
2023-03-25T11:48:45.376Z,4.93
2023-03-25T11:53:37.755Z,5.53
2023-03-25T11:58:35.455Z,6.57
2023-03-25T12:03:28.962Z,4.38
2023-03-25T12:08:22.342Z,4.93
2023-03-25T12:13:47.187Z,8.20
2023-03-25T12:18:39.554Z,5.05
2023-03-25T12:23:44.981Z,6.72
2023-03-25T12:28:45.716Z,9.20
2023-03-25T12:38:56.824Z,7.85
2023-03-25T12:44:30.675Z,7.90
2023-03-25T12:49:53.779Z,7.60
2023-03-25T12:55:06.080Z,2.20
2023-03-25T13:00:17.928Z,4.93
2023-03-25T13:05:25.717Z,3.55
2023-03-25T13:10:21.769Z,10.60
2023-03-25T13:15:43.336Z,7.93
2023-03-25T13:20:41.841Z,4.45
2023-03-25T13:26:00.196Z,14.52
2023-03-25T13:30:58.803Z,17.05
2023-03-25T13:36:17.170Z,11.07
2023-03-25T13:41:15.491Z,12.52
2023-03-25T13:46:18.092Z,23.38
2023-03-25T13:51:11.443Z,25.70
2023-03-25T13:56:07.705Z,11.13
2023-03-25T14:01:29.905Z,11.13
2023-03-25T14:06:59.771Z,11.10
2023-03-25T14:11:57.808Z,15.20
2023-03-25T14:16:58.892Z,8.48
2023-03-25T14:21:53.861Z,8.18
2023-03-25T14:26:56.327Z,9.55
2023-03-25T14:32:32.684Z,9.05
2023-03-25T14:37:29.556Z,6.15
2023-03-25T14:43:00.442Z,5.40
2023-03-25T14:52:51.063Z,4.13
2023-03-25T14:57:45.014Z,5.20
2023-03-25T15:02:40.855Z,4.50
2023-03-25T15:08:05.103Z,4.15
2023-03-25T15:13:47.619Z,2.80
2023-03-25T15:18:41.093Z,5.60
2023-03-25T15:23:42.727Z,2.95
2023-03-25T15:29:04.834Z,4.07
2023-03-25T15:34:11.094Z,2.97
2023-03-25T15:39:22.283Z,2.95
2023-03-25T15:44:36.466Z,4.88
2023-03-25T15:49:34.612Z,2.80
2023-03-25T15:54:57.271Z,2.17
2023-03-25T16:00:16.242Z,2.28
2023-03-25T16:05:09.495Z,5.45
2023-03-25T16:10:15.293Z,2.40
2023-03-25T16:15:15.140Z,2.90
2023-03-25T16:20:10.698Z,1.83
2023-03-25T16:25:08.375Z,3.03
2023-03-25T16:30:02.534Z,2.58
2023-03-25T16:34:55.726Z,1.98
2023-03-25T16:39:58.836Z,1.80
2023-03-25T16:44:51.922Z,4.78
2023-03-25T16:49:48.466Z,2.50
2023-03-25T16:54:45.171Z,1.48
2023-03-25T16:59:38.730Z,2.50
2023-03-25T17:04:42.739Z,4.95
2023-03-25T17:09:40.335Z,6.10
2023-03-25T17:14:37.078Z,1.05
2023-03-25T17:19:30.346Z,3.13
2023-03-25T17:24:25.460Z,1.95
2023-03-25T17:29:18.952Z,0.98
2023-03-25T17:34:14.711Z,2.40
2023-03-25T17:39:19.634Z,2.55
2023-03-25T17:44:18.424Z,4.32
2023-03-25T17:49:17.335Z,2.38
2023-03-25T17:54:10.155Z,4.45
2023-03-25T17:59:12.143Z,1.92
2023-03-25T18:04:05.751Z,3.38
2023-03-25T18:08:59.045Z,3.25
2023-03-25T18:13:52.491Z,3.63
2023-03-25T18:18:44.650Z,2.30
2023-03-25T18:23:37.473Z,3.45
2023-03-25T18:28:31.493Z,3.00
2023-03-25T18:33:25.027Z,3.83
2023-03-25T18:38:26.827Z,2.17
2023-03-25T18:43:19.455Z,6.57
2023-03-25T18:48:14.950Z,5.55
2023-03-25T18:53:08.394Z,5.35
2023-03-25T18:58:01.408Z,4.30
2023-03-25T19:02:54.790Z,3.00
2023-03-25T19:07:50.041Z,2.85
2023-03-25T19:12:45.063Z,3.33
2023-03-25T19:17:38.288Z,2.40
2023-03-25T19:22:31.032Z,2.10
2023-03-25T19:27:30.013Z,1.58
2023-03-25T19:32:23.584Z,3.25
2023-03-25T19:37:17.008Z,1.63
2023-03-25T19:42:10.694Z,5.25
2023-03-25T19:47:05.359Z,5.25
2023-03-25T19:51:59.304Z,5.22
2023-03-25T19:56:52.676Z,5.85
2023-03-25T20:01:45.832Z,2.70
2023-03-25T20:06:39.445Z,2.30
2023-03-25T20:11:32.810Z,4.47
2023-03-25T20:16:28.407Z,4.25
2023-03-25T20:21:23.076Z,3.72
2023-03-25T20:26:15.674Z,3.83
2023-03-25T20:31:35.744Z,2.63
2023-03-25T20:36:28.717Z,2.78
2023-03-25T20:41:22.587Z,2.90
2023-03-25T20:46:16.779Z,3.10
2023-03-25T20:51:13.654Z,2.55
2023-03-25T20:56:07.735Z,2.03
2023-03-25T21:01:01.138Z,2.08
2023-03-25T21:06:07.285Z,1.83
2023-03-25T21:11:07.333Z,3.67
2023-03-25T21:16:03.065Z,1.90
2023-03-25T21:20:58.093Z,0.93
2023-03-25T21:25:50.849Z,2.67
2023-03-25T21:30:45.234Z,2.17
2023-03-25T21:35:39.508Z,2.38
2023-03-25T21:40:47.873Z,2.17
2023-03-25T21:45:41.590Z,1.98
2023-03-25T21:50:36.742Z,1.88
2023-03-25T21:55:30.645Z,1.85
2023-03-25T22:00:26.092Z,2.42
2023-03-25T22:05:19.501Z,1.75
2023-03-25T22:10:13.479Z,1.67
2023-03-25T22:15:07.064Z,4.25
2023-03-25T22:20:00.674Z,16.20
2023-03-25T22:24:53.336Z,12.05
2023-03-25T22:29:48.528Z,4.40
2023-03-25T22:34:42.063Z,6.57
2023-03-25T22:39:36.033Z,10.52
2023-03-25T22:44:29.068Z,10.50
2023-03-25T22:49:23.543Z,8.77
2023-03-25T22:54:17.383Z,10.88
2023-03-25T22:59:13.124Z,5.32
2023-03-25T23:04:05.601Z,5.53
2023-03-25T23:09:03.067Z,4.90
2023-03-25T23:14:03.687Z,3.22
2023-03-25T23:18:58.065Z,4.32
2023-03-25T23:23:53.288Z,7.00
2023-03-25T23:28:49.740Z,2.88
2023-03-25T23:33:42.775Z,4.20
2023-03-25T23:38:35.715Z,4.25
2023-03-25T23:43:29.041Z,3.25
2023-03-25T23:48:23.002Z,5.30
2023-03-25T23:53:16.190Z,4.10
2023-03-25T23:58:09.467Z,2.60
